createdAt,value
2018-06-17T00:02:28.780Z,100061.63
2018-06-17T00:05:32.551Z,100066.44
2018-06-17T00:08:36.255Z,100073.98
2018-06-17T00:11:40.045Z,100060.85
2018-06-17T00:14:43.894Z,100075.05
2018-06-17T00:17:47.719Z,100080.33
2018-06-17T00:20:51.620Z,100084.25
2018-06-17T00:23:55.828Z,100081.77
2018-06-17T00:27:00.077Z,100077.23
2018-06-17T00:30:04.253Z,100079.64
2018-06-17T00:33:08.324Z,100081.17
2018-06-17T00:36:12.181Z,100082.19
2018-06-17T00:39:16.027Z,100083.95
2018-06-17T00:42:20.205Z,100081.99
2018-06-17T00:45:24.540Z,100075.86
2018-06-17T00:48:28.851Z,100079.56
2018-06-17T00:51:33.118Z,100084.94
2018-06-17T00:54:37.377Z,100076.48
2018-06-17T00:57:49.673Z,100079.09
2018-06-17T01:00:54.096Z,100080.48
2018-06-17T01:03:57.985Z,100090.66
2018-06-17T01:07:01.867Z,100084.70
2018-06-17T01:10:05.817Z,100086.52
2018-06-17T01:13:10.728Z,100089.09
2018-06-17T01:16:15.072Z,100089.77
2018-06-17T01:19:19.600Z,100093.71
2018-06-17T01:22:23.736Z,100093.75
2018-06-17T01:25:27.850Z,100094.98
2018-06-17T01:28:31.503Z,100097.97
2018-06-17T01:31:35.365Z,100103.37
2018-06-17T01:34:39.643Z,100106.18
2018-06-17T01:37:44.033Z,100106.37
2018-06-17T01:40:47.886Z,100093.17
2018-06-17T01:43:51.831Z,100100.41
2018-06-17T01:46:55.715Z,100095.46
2018-06-17T01:49:59.632Z,100098.54
2018-06-17T01:53:03.522Z,100103.04
2018-06-17T01:56:07.331Z,100099.20
2018-06-17T01:59:28.158Z,100103.25
2018-06-17T02:02:32.283Z,100100.44
2018-06-17T02:05:42.353Z,100106.75
2018-06-17T02:08:52.456Z,100101.57
2018-06-17T02:12:02.109Z,100099.02
2018-06-17T02:15:06.077Z,100092.46
2018-06-17T02:18:10.427Z,100084.73
2018-06-17T02:21:15.241Z,100014.59
2018-06-17T02:24:32.544Z,100094.27
2018-06-17T02:27:37.563Z,100092.94
2018-06-17T02:30:44.427Z,100098.77
2018-06-17T02:33:50.825Z,100092.79
2018-06-17T02:36:56.463Z,100095.47
2018-06-17T02:40:00.561Z,100102.17
2018-06-17T02:43:04.831Z,100095.73
2018-06-17T02:46:20.928Z,100104.88
2018-06-17T02:49:33.471Z,100106.66
2018-06-17T02:52:42.761Z,100099.28
2018-06-17T02:55:49.074Z,100098.30
2018-06-17T02:58:53.513Z,100104.02
2018-06-17T03:01:57.673Z,100100.22
2018-06-17T03:05:01.535Z,100103.19
2018-06-17T03:08:06.112Z,100101.95
2018-06-17T03:11:11.090Z,100104.16
2018-06-17T03:14:15.159Z,100100.36
2018-06-17T03:17:19.042Z,100104.45
2018-06-17T03:20:23.279Z,100105.33
2018-06-17T03:23:27.033Z,100099.02
2018-06-17T03:26:36.411Z,100110.79
2018-06-17T03:29:45.694Z,100103.37
2018-06-17T03:32:55.434Z,100119.13
2018-06-17T03:36:08.745Z,100112.42
2018-06-17T03:39:12.878Z,100108.54
2018-06-17T03:42:16.418Z,100106.22
2018-06-17T03:45:20.215Z,100111.11
2018-06-17T03:48:24.187Z,100118.71
2018-06-17T03:51:28.097Z,100119.38
2018-06-17T03:54:32.771Z,100123.69
2018-06-17T03:57:36.659Z,100125.48
2018-06-17T04:00:41.275Z,100130.85
2018-06-17T04:03:45.276Z,100124.16
2018-06-17T04:06:49.729Z,100127.30
2018-06-17T04:09:54.178Z,100129.84
2018-06-17T04:12:58.227Z,100132.15
2018-06-17T04:16:01.914Z,100124.87
2018-06-17T04:19:05.672Z,100116.00
2018-06-17T04:22:09.596Z,100121.39
2018-06-17T04:25:13.378Z,100117.86
2018-06-17T04:28:17.456Z,100125.45
2018-06-17T04:31:21.195Z,100131.06
2018-06-17T04:34:25.403Z,100129.27
2018-06-17T04:37:29.610Z,100133.23
2018-06-17T04:40:33.679Z,100118.47
2018-06-17T04:43:38.350Z,100121.70
2018-06-17T04:46:42.405Z,100119.80
2018-06-17T04:49:47.334Z,100119.66
2018-06-17T04:52:51.391Z,100109.28
2018-06-17T04:55:55.647Z,100120.86
2018-06-17T04:58:59.520Z,100117.05
2018-06-17T05:02:03.885Z,100117.00
2018-06-17T05:05:07.632Z,100113.91
2018-06-17T05:08:11.264Z,100117.81
2018-06-17T05:11:16.003Z,100112.16
2018-06-17T05:14:20.148Z,100119.66
2018-06-17T05:17:24.279Z,100120.06
2018-06-17T05:20:27.934Z,100121.81
2018-06-17T05:23:31.660Z,100122.95
2018-06-17T05:26:35.398Z,100123.15
2018-06-17T05:29:39.280Z,100134.34
2018-06-17T05:32:43.016Z,100123.27
2018-06-17T05:35:47.119Z,100115.52
2018-06-17T05:38:52.024Z,100131.73
2018-06-17T05:41:55.797Z,100130.78
2018-06-17T05:44:59.578Z,100128.18
2018-06-17T05:48:03.743Z,100126.66
2018-06-17T05:51:07.816Z,100127.58
2018-06-17T05:54:12.376Z,100136.06
2018-06-17T05:57:16.427Z,100130.02
2018-06-17T06:00:21.080Z,100131.67
2018-06-17T06:03:25.015Z,100133.56
2018-06-17T06:06:29.336Z,100129.09
2018-06-17T06:09:33.100Z,100138.80
2018-06-17T06:12:37.653Z,100133.41
2018-06-17T06:15:41.688Z,100138.30
2018-06-17T06:18:45.464Z,100146.66
2018-06-17T06:21:49.502Z,100148.82
2018-06-17T06:24:53.454Z,100141.19
2018-06-17T06:27:57.237Z,100141.75
2018-06-17T06:31:01.033Z,100141.17
2018-06-17T06:34:04.807Z,100145.69
2018-06-17T06:37:09.763Z,100137.83
2018-06-17T06:40:13.672Z,100145.45
2018-06-17T06:43:17.471Z,100142.26
2018-06-17T06:46:22.067Z,100150.84
2018-06-17T06:49:25.830Z,100146.49
2018-06-17T06:52:29.874Z,100159.89
2018-06-17T06:55:34.232Z,100150.07
2018-06-17T06:58:38.301Z,100144.70
2018-06-17T07:01:59.165Z,100154.05
2018-06-17T07:05:19.641Z,100150.73
2018-06-17T07:08:39.795Z,100168.89
2018-06-17T07:11:42.681Z,100160.59
2018-06-17T07:14:45.594Z,100165.02
2018-06-17T07:18:00.117Z,100167.16
2018-06-17T07:21:03.180Z,100181.20
2018-06-17T07:24:06.086Z,100178.20
2018-06-17T07:27:26.369Z,100180.69
2018-06-17T07:30:29.457Z,100175.57
2018-06-17T07:33:32.424Z,100180.22
2018-06-17T07:36:35.995Z,100183.43
2018-06-17T07:41:05.376Z,100209.98
2018-06-17T07:44:08.329Z,100197.84
2018-06-17T07:47:11.371Z,100201.23
2018-06-17T07:50:31.626Z,100195.39
2018-06-17T07:53:34.550Z,100200.06
2018-06-17T07:56:37.472Z,100191.08
2018-06-17T07:59:40.420Z,100187.56
2018-06-17T08:02:43.300Z,100195.42
2018-06-17T08:05:46.196Z,100190.73
2018-06-17T08:08:49.116Z,100190.94
2018-06-17T08:11:52.082Z,100197.55
2018-06-17T08:14:55.092Z,100192.93
2018-06-17T08:17:58.017Z,100205.99
2018-06-17T08:21:00.918Z,100203.50
2018-06-17T08:24:03.929Z,100200.41
2018-06-17T08:27:06.830Z,100198.62
2018-06-17T08:30:09.772Z,100196.09
2018-06-17T08:33:12.689Z,100194.38
2018-06-17T08:36:15.585Z,100199.96
2018-06-17T08:39:19.653Z,100196.30
2018-06-17T08:42:22.567Z,100198.16
2018-06-17T08:45:25.486Z,100193.12
2018-06-17T08:48:28.434Z,100195.24
2018-06-17T08:51:31.403Z,100225.02
2018-06-17T08:54:34.286Z,100192.51
2018-06-17T08:57:37.225Z,100195.62
2018-06-17T09:00:40.137Z,100189.02
2018-06-17T09:03:43.060Z,100189.56
2018-06-17T09:06:45.945Z,100202.19
2018-06-17T09:09:48.855Z,100204.60
2018-06-17T09:12:51.748Z,100202.75
2018-06-17T09:15:55.328Z,100197.63
2018-06-17T09:18:58.318Z,100196.13
2018-06-17T09:22:01.233Z,100191.89
2018-06-17T09:25:04.294Z,100188.52
2018-06-17T09:28:07.185Z,100189.77
2018-06-17T09:31:10.097Z,100190.99
2018-06-17T09:34:12.990Z,100201.00
2018-06-17T09:37:15.912Z,100206.23
2018-06-17T09:40:18.844Z,100208.44
2018-06-17T09:43:21.749Z,100204.15
2018-06-17T09:46:24.658Z,100207.15
2018-06-17T09:49:27.604Z,100214.55
2018-06-17T09:52:30.577Z,100197.94
2018-06-17T09:55:33.552Z,100211.27
2018-06-17T09:58:36.623Z,100201.10
2018-06-17T10:01:39.544Z,100224.09
2018-06-17T10:04:42.408Z,100229.16
2018-06-17T10:07:45.316Z,100212.62
2018-06-17T10:10:57.198Z,100225.06
2018-06-17T10:14:00.098Z,100213.55
2018-06-17T10:17:06.557Z,100216.97
2018-06-17T10:20:09.496Z,100216.39
2018-06-17T10:23:12.557Z,100226.37
2018-06-17T10:26:15.513Z,100220.42
2018-06-17T10:29:18.430Z,100223.39
2018-06-17T10:32:21.298Z,100223.25
2018-06-17T10:35:24.245Z,100224.34
2018-06-17T10:38:27.167Z,100223.41
2018-06-17T10:41:30.138Z,100227.23
2018-06-17T10:44:33.061Z,100226.03
2018-06-17T10:47:36.048Z,100220.52
2018-06-17T10:50:39.047Z,100232.45
2018-06-17T10:53:41.974Z,100228.08
2018-06-17T10:56:44.980Z,100228.84
2018-06-17T10:59:47.916Z,100224.13
2018-06-17T11:02:50.814Z,100229.73
2018-06-17T11:05:53.739Z,100236.38
2018-06-17T11:08:56.662Z,100239.28
2018-06-17T11:11:59.575Z,100245.92
2018-06-17T11:15:02.590Z,100247.89
2018-06-17T11:18:05.534Z,100251.23
2018-06-17T11:21:08.445Z,100247.30
2018-06-17T11:24:11.492Z,100243.36
2018-06-17T11:27:14.514Z,100247.23
2018-06-17T11:30:17.480Z,100245.42
2018-06-17T11:33:20.423Z,100252.43
2018-06-17T11:36:23.400Z,100245.36
2018-06-17T11:39:26.351Z,100253.20
2018-06-17T11:42:29.282Z,100261.78
2018-06-17T11:45:32.203Z,100255.26
2018-06-17T11:48:35.115Z,100271.47
2018-06-17T11:51:38.013Z,100262.34
2018-06-17T11:54:40.937Z,100265.57
2018-06-17T11:57:43.897Z,100263.29
2018-06-17T12:00:46.841Z,100268.83
2018-06-17T12:03:49.758Z,100272.38
2018-06-17T12:06:52.732Z,100269.88
2018-06-17T12:09:55.692Z,100277.52
2018-06-17T12:12:58.606Z,100277.69
2018-06-17T12:16:01.888Z,100282.55
2018-06-17T12:19:06.436Z,100283.29
2018-06-17T12:22:09.583Z,100286.89
2018-06-17T12:25:12.682Z,100282.93
2018-06-17T12:28:15.765Z,100272.19
2018-06-17T12:31:18.721Z,100271.62
2018-06-17T12:34:21.654Z,100285.30
2018-06-17T12:37:24.668Z,100286.11
2018-06-17T12:40:27.605Z,100288.13
2018-06-17T12:43:30.552Z,100294.05
2018-06-17T12:46:33.577Z,100290.48
2018-06-17T12:49:36.542Z,100284.94
2018-06-17T12:52:39.529Z,100279.55
2018-06-17T12:55:42.505Z,100296.27
2018-06-17T12:58:45.445Z,100296.23
2018-06-17T13:01:48.383Z,100293.89
2018-06-17T13:04:51.283Z,100296.02
2018-06-17T13:07:54.214Z,100305.34
2018-06-17T13:10:57.162Z,100300.42
2018-06-17T13:14:00.114Z,100299.32
2018-06-17T13:17:03.237Z,100294.66
2018-06-17T13:20:06.205Z,100288.62
2018-06-17T13:23:09.233Z,100305.00
2018-06-17T13:26:12.193Z,100300.63
2018-06-17T13:29:15.478Z,100293.12
2018-06-17T13:32:18.395Z,100304.78
2018-06-17T13:35:21.511Z,100307.23
2018-06-17T13:38:24.454Z,100301.91
2018-06-17T13:41:27.402Z,100311.33
2018-06-17T13:44:30.357Z,100304.20
2018-06-17T13:47:33.286Z,100298.18
2018-06-17T13:50:36.227Z,100300.06
2018-06-17T13:53:39.177Z,100309.11
2018-06-17T13:56:42.094Z,100304.61
2018-06-17T13:59:45.021Z,100302.36
2018-06-17T14:02:47.958Z,100305.89
2018-06-17T14:05:50.893Z,100301.33
2018-06-17T14:08:53.841Z,100307.22
2018-06-17T14:11:56.867Z,100307.80
2018-06-17T14:14:59.796Z,100309.02
2018-06-17T14:18:02.766Z,100313.94
2018-06-17T14:21:05.827Z,100318.20
2018-06-17T14:24:08.788Z,100315.94
2018-06-17T14:27:11.718Z,100327.38
2018-06-17T14:30:14.642Z,100216.66
2018-06-17T14:33:17.591Z,100321.45
2018-06-17T14:36:20.668Z,100319.27
2018-06-17T14:39:23.628Z,100315.17
2018-06-17T14:43:31.021Z,100314.95
2018-06-17T14:46:39.631Z,100329.70
2018-06-17T14:49:48.325Z,100325.84
2018-06-17T14:53:00.191Z,100326.34
2018-06-17T14:56:03.148Z,100335.98
2018-06-17T14:59:06.072Z,100332.17
2018-06-17T15:02:08.953Z,100320.58
2018-06-17T15:05:11.978Z,100325.51
2018-06-17T15:08:14.930Z,100315.08
2018-06-17T15:11:17.924Z,100324.09
2018-06-17T15:14:20.896Z,100315.08
2018-06-17T15:17:23.853Z,100329.06
2018-06-17T15:20:26.814Z,100320.30
2018-06-17T15:23:29.757Z,100322.50
2018-06-17T15:26:32.785Z,100320.52
2018-06-17T15:29:38.706Z,100330.05
2018-06-17T15:32:47.221Z,100327.23
2018-06-17T15:35:55.737Z,100322.81
2018-06-17T15:39:03.220Z,100328.16
2018-06-17T15:42:06.177Z,100325.84
2018-06-17T15:45:09.123Z,100325.76
2018-06-17T15:48:12.088Z,100338.20
2018-06-17T15:51:15.069Z,100329.25
2018-06-17T15:54:17.996Z,100335.63
2018-06-17T15:57:20.924Z,100327.73
2018-06-17T16:00:23.866Z,100325.34
2018-06-17T16:03:27.136Z,100319.04
2018-06-17T16:06:30.056Z,100308.88
2018-06-17T16:09:33.037Z,100320.62
2018-06-17T16:12:41.753Z,100322.74
2018-06-17T16:15:50.326Z,100329.36
2018-06-17T16:18:58.940Z,100336.87
2018-06-17T16:22:01.891Z,100331.96
2018-06-17T16:25:04.850Z,100308.97
2018-06-17T16:28:07.779Z,100328.87
2018-06-17T16:31:10.709Z,100343.04
2018-06-17T16:34:13.648Z,100335.58
2018-06-17T16:37:16.606Z,100341.56
2018-06-17T16:40:19.591Z,100331.92
2018-06-17T16:43:22.569Z,100343.59
2018-06-17T16:46:25.466Z,100341.97
2018-06-17T16:49:28.370Z,100335.63
2018-06-17T16:52:36.858Z,100341.92
2018-06-17T16:55:45.454Z,100343.38
2018-06-17T16:58:53.937Z,100332.42
2018-06-17T17:01:56.877Z,100340.34
2018-06-17T17:04:59.797Z,100336.66
2018-06-17T17:08:02.735Z,100344.56
2018-06-17T17:11:05.827Z,100349.88
2018-06-17T17:14:09.809Z,100349.56
2018-06-17T17:17:12.718Z,100357.58
2018-06-17T17:20:15.703Z,100358.72
2018-06-17T17:23:18.652Z,100370.66
2018-06-17T17:26:21.571Z,100383.72
2018-06-17T17:29:24.560Z,100376.54
2018-06-17T17:32:33.270Z,100379.13
2018-06-17T17:35:42.069Z,100378.92
2018-06-17T17:38:50.632Z,100400.05
2018-06-17T17:41:53.497Z,100387.73
2018-06-17T17:45:02.192Z,100400.34
2018-06-17T17:48:05.103Z,100401.83
2018-06-17T17:51:08.038Z,100395.18
2018-06-17T17:54:10.989Z,100393.13
2018-06-17T17:57:13.887Z,100392.63
2018-06-17T18:00:16.839Z,100393.64
2018-06-17T18:03:19.774Z,100391.99
2018-06-17T18:06:22.745Z,100391.16
2018-06-17T18:09:25.697Z,100386.77
2018-06-17T18:12:28.657Z,100387.87
2018-06-17T18:15:31.614Z,100393.15
2018-06-17T18:18:36.489Z,100386.78
2018-06-17T18:21:39.395Z,100387.94
2018-06-17T18:24:46.622Z,100388.36
2018-06-17T18:27:55.233Z,100385.59
2018-06-17T18:31:02.097Z,100390.23
2018-06-17T18:34:10.793Z,100383.30
2018-06-17T18:37:13.811Z,100393.05
2018-06-17T18:40:16.751Z,100394.30
2018-06-17T18:43:19.681Z,100376.43
2018-06-17T18:46:22.670Z,100377.14
2018-06-17T18:49:25.594Z,100378.02
2018-06-17T18:52:28.532Z,100383.30
2018-06-17T18:55:31.443Z,100395.14
2018-06-17T18:58:34.387Z,100392.89
2018-06-17T19:01:37.308Z,100396.17
2018-06-17T19:04:40.416Z,100394.85
2018-06-17T19:07:43.308Z,100387.30
2018-06-17T19:10:52.029Z,100386.59
2018-06-17T19:13:59.534Z,100393.44
2018-06-17T19:17:08.305Z,100402.06
2018-06-17T19:20:11.213Z,100405.90
2018-06-17T19:23:14.159Z,100411.75
2018-06-17T19:26:17.112Z,100409.65
2018-06-17T19:29:20.034Z,100411.75
2018-06-17T19:32:22.990Z,100414.56
2018-06-17T19:35:25.947Z,100421.05
2018-06-17T19:38:28.883Z,100419.30
2018-06-17T19:41:31.810Z,100425.95
2018-06-17T19:44:34.746Z,100428.48
2018-06-17T19:47:37.701Z,100426.50
2018-06-17T19:50:46.368Z,100427.84
2018-06-17T19:53:55.173Z,100436.73
2018-06-17T19:57:03.795Z,100435.87
2018-06-17T20:00:12.454Z,100436.73
2018-06-17T20:03:15.371Z,100459.38
2018-06-17T20:06:18.358Z,100453.87
2018-06-17T20:09:21.268Z,100456.69
2018-06-17T20:12:24.201Z,100461.52
2018-06-17T20:15:27.118Z,100464.33
2018-06-17T20:18:30.041Z,100465.98
2018-06-17T20:21:32.962Z,100468.53
2018-06-17T20:24:35.881Z,100468.05
2018-06-17T20:27:38.850Z,100463.67
2018-06-17T20:30:41.804Z,100472.80
2018-06-17T20:33:50.387Z,100469.58
2018-06-17T20:36:58.858Z,100473.02
2018-06-17T20:40:07.557Z,100464.70
2018-06-17T20:43:16.174Z,100470.50
2018-06-17T20:46:19.176Z,100472.54
2018-06-17T20:49:22.113Z,100471.94
2018-06-17T20:52:25.059Z,100470.66
2018-06-17T20:55:28.020Z,100475.44
2018-06-17T20:58:30.966Z,100486.88
2018-06-17T21:01:34.078Z,100492.48
2018-06-17T21:10:01.006Z,100491.86
2018-06-17T21:13:04.297Z,100490.23
2018-06-17T21:16:08.162Z,100486.56
2018-06-17T21:19:21.384Z,100481.84
2018-06-17T21:22:30.719Z,100487.00
2018-06-17T21:25:40.020Z,100487.40
2018-06-17T21:28:43.782Z,100485.88
2018-06-17T21:31:47.557Z,100489.54
2018-06-17T21:34:50.537Z,100492.37
2018-06-17T21:37:53.450Z,100491.17
2018-06-17T21:40:56.418Z,100497.56
2018-06-17T21:43:59.461Z,100493.46
2018-06-17T21:47:02.398Z,100488.34
2018-06-17T21:50:05.420Z,100484.09
2018-06-17T21:53:08.373Z,100487.00
2018-06-17T21:56:11.324Z,100482.20
2018-06-17T21:59:14.678Z,100481.66
2018-06-17T22:02:17.633Z,100483.88
2018-06-17T22:05:20.592Z,100484.64
2018-06-17T22:08:30.993Z,100484.96
2018-06-17T22:11:39.628Z,100481.55
2018-06-17T22:14:48.419Z,100472.73
2018-06-17T22:17:52.220Z,100480.09
2018-06-17T22:20:55.172Z,100471.48
2018-06-17T22:23:58.108Z,100477.80
2018-06-17T22:27:01.075Z,100466.88
2018-06-17T22:30:04.277Z,100468.08
2018-06-17T22:33:07.214Z,100464.37
2018-06-17T22:36:10.125Z,100469.67
2018-06-17T22:39:13.076Z,100478.05
2018-06-17T22:42:15.991Z,100473.38
2018-06-17T22:45:18.943Z,100478.05
2018-06-17T22:48:21.865Z,100476.78
2018-06-17T22:51:24.793Z,100474.89
2018-06-17T22:54:39.157Z,100479.87
2018-06-17T22:57:47.866Z,100477.03
2018-06-17T23:01:54.088Z,100477.66
2018-06-17T23:05:02.773Z,100474.70
2018-06-17T23:08:11.424Z,100483.22
2018-06-17T23:11:14.380Z,100472.27
2018-06-17T23:14:17.368Z,100475.81
2018-06-17T23:17:20.404Z,100475.76
2018-06-17T23:20:23.344Z,100479.78
2018-06-17T23:23:26.273Z,100486.42
2018-06-17T23:26:29.234Z,100483.14
2018-06-17T23:29:32.161Z,100480.31
2018-06-17T23:32:35.108Z,100476.83
2018-06-17T23:35:38.972Z,100478.33
2018-06-17T23:38:42.006Z,100489.78
2018-06-17T23:41:46.624Z,100486.54
2018-06-17T23:44:51.008Z,100485.92
2018-06-17T23:48:00.068Z,100476.45
2018-06-17T23:51:09.747Z,100469.82
2018-06-17T23:54:18.421Z,100466.11
2018-06-17T23:57:21.489Z,100470.02
